Time;durP1;ratioP1;P1;durP2;ratioP2;P2;SDS_P1;SDS_P2;PMS_P1;PMS_P2;Temp;Humidity;BMP_temperature;BMP_pressure;BME280_temperature;BME280_humidity;BME280_pressure;Samples;Min_cycle;Max_cycle;Signal;HPM_P1;HPM_P2
2022/03/23 00:00:43;;;;;;;7.25;5.75;;;17.90;51.90;;;;;;5052946;28;20181;-71
2022/03/23 00:03:09;;;;;;;6.03;5.20;;;17.90;51.90;;;;;;5055442;28;20201;-70
2022/03/23 00:05:38;;;;;;;5.60;5.10;;;17.90;51.90;;;;;;5055606;28;20689;-69
2022/03/23 00:08:04;;;;;;;6.03;5.43;;;17.80;51.80;;;;;;5054775;28;20691;-70
2022/03/23 00:10:32;;;;;;;6.20;5.70;;;17.80;51.80;;;;;;5055388;28;20182;-71
2022/03/23 00:12:58;;;;;;;5.65;5.15;;;17.80;51.80;;;;;;5055599;28;20262;-72
2022/03/23 00:15:24;;;;;;;6.80;5.60;;;17.80;51.90;;;;;;5054221;28;20637;-71
2022/03/23 00:17:50;;;;;;;7.22;5.38;;;17.80;51.90;;;;;;5055177;28;20633;-73
2022/03/23 00:20:16;;;;;;;6.38;4.80;;;17.80;51.90;;;;;;5054862;28;20232;-72
2022/03/23 00:22:41;;;;;;;5.45;4.95;;;17.80;51.90;;;;;;5054684;28;20191;-71
2022/03/23 00:25:08;;;;;;;5.32;4.85;;;17.80;51.90;;;;;;5055039;28;20187;-72
2022/03/23 00:27:34;;;;;;;5.38;4.90;;;17.80;51.90;;;;;;5055314;28;20178;-71
2022/03/23 00:30:00;;;;;;;6.35;5.53;;;17.80;51.90;;;;;;5054531;28;20630;-69
2022/03/23 00:32:25;;;;;;;6.28;5.50;;;17.80;51.90;;;;;;5054707;28;20611;-70
2022/03/23 00:34:51;;;;;;;5.60;5.10;;;17.70;51.80;;;;;;5054876;28;20179;-69
2022/03/23 00:37:16;;;;;;;5.88;5.38;;;17.70;51.80;;;;;;5054062;28;20309;-70
2022/03/23 00:39:42;;;;;;;5.30;4.80;;;17.70;51.90;;;;;;5055079;28;20171;-70
2022/03/23 00:42:07;;;;;;;5.57;5.13;;;17.70;51.90;;;;;;5054435;28;20595;-69
2022/03/23 00:44:33;;;;;;;6.20;5.25;;;17.70;51.90;;;;;;5054060;28;20278;-71
2022/03/23 00:46:58;;;;;;;5.97;5.00;;;17.70;51.90;;;;;;5054841;28;20191;-70
2022/03/23 00:49:24;;;;;;;5.95;5.45;;;17.70;51.90;;;;;;5054454;28;20181;-70
2022/03/23 00:51:53;;;;;;;5.93;5.30;;;17.70;51.90;;;;;;5053953;28;20175;-70
2022/03/23 00:54:22;;;;;;;6.38;5.78;;;17.70;51.90;;;;;;5054623;28;20194;-70
2022/03/23 00:56:50;;;;;;;6.28;5.68;;;17.60;51.90;;;;;;5054019;28;20290;-71
2022/03/23 00:59:16;;;;;;;5.88;5.28;;;17.60;51.90;;;;;;5054068;28;20658;-70
2022/03/23 01:01:43;;;;;;;6.20;5.60;;;17.60;51.80;;;;;;5054521;28;20183;-71
2022/03/23 01:04:09;;;;;;;6.10;5.50;;;17.60;51.90;;;;;;5053374;28;20181;-69
2022/03/23 01:06:34;;;;;;;5.70;5.20;;;17.60;51.80;;;;;;5054381;28;20553;-69
2022/03/23 01:09:00;;;;;;;5.82;5.30;;;17.60;51.90;;;;;;5054539;28;20170;-70
2022/03/23 01:11:25;;;;;;;5.72;5.20;;;17.60;51.90;;;;;;5052874;28;20179;-71
2022/03/23 01:13:51;;;;;;;5.35;4.85;;;17.60;51.90;;;;;;5054277;28;20163;-72
2022/03/23 01:16:17;;;;;;;5.95;5.35;;;17.60;51.90;;;;;;5053890;28;20211;-71
2022/03/23 01:18:42;;;;;;;6.32;5.72;;;17.60;51.90;;;;;;5052107;28;20182;-70
2022/03/23 01:21:08;;;;;;;5.93;5.35;;;17.60;52.30;;;;;;5053951;28;20244;-72
2022/03/23 01:23:34;;;;;;;6.35;5.75;;;17.60;51.90;;;;;;5054298;28;20634;-71
2022/03/23 01:25:59;;;;;;;6.35;5.75;;;17.60;51.90;;;;;;5053409;28;20623;-72
2022/03/23 01:28:25;;;;;;;6.35;5.80;;;17.60;51.90;;;;;;5053713;28;20179;-70
2022/03/23 01:30:50;;;;;;;6.35;5.75;;;17.60;51.90;;;;;;5054091;28;20179;-69
2022/03/23 01:33:16;;;;;;;6.15;5.55;;;17.50;51.80;;;;;;5052843;28;20248;-69
2022/03/23 01:35:41;;;;;;;5.85;5.15;;;17.50;51.80;;;;;;5053758;28;20312;-70
2022/03/23 01:38:07;;;;;;;6.78;6.03;;;17.50;51.90;;;;;;5053646;28;20679;-70
2022/03/23 01:40:32;;;;;;;7.47;6.15;;;17.50;51.80;;;;;;5053114;28;20179;-70
2022/03/23 01:42:58;;;;;;;6.32;5.72;;;17.50;51.90;;;;;;5053860;28;20203;-71
2022/03/23 01:45:23;;;;;;;5.50;5.00;;;17.50;51.90;;;;;;5053311;28;20175;-70
2022/03/23 01:47:49;;;;;;;6.03;5.43;;;17.50;51.80;;;;;;5052978;28;20625;-70
2022/03/23 01:50:14;;;;;;;7.88;5.90;;;17.50;51.90;;;;;;5053293;28;20210;-70
2022/03/23 01:52:40;;;;;;;7.05;6.13;;;17.50;51.80;;;;;;5053579;28;20560;-70
2022/03/23 01:55:13;;;;;;;6.40;5.80;;;17.50;51.90;;;;;;5052546;28;20176;-71
2022/03/23 01:57:39;;;;;;;6.68;5.97;;;17.50;51.90;;;;;;5053575;28;20198;-71
2022/03/23 02:00:06;;;;;;;6.30;5.70;;;17.50;51.90;;;;;;5052552;28;20744;-70
2022/03/23 02:02:32;;;;;;;5.63;5.13;;;17.50;52.50;;;;;;5053420;28;20244;-70
2022/03/23 02:04:57;;;;;;;6.72;5.82;;;17.40;51.80;;;;;;5053267;28;20614;-70
2022/03/23 02:07:24;;;;;;;6.18;5.60;;;17.40;51.80;;;;;;5052480;28;20179;-69
2022/03/23 02:09:52;;;;;;;6.20;5.45;;;17.40;51.80;;;;;;5053301;28;20175;-71
2022/03/23 02:12:17;;;;;;;6.38;5.03;;;17.40;51.80;;;;;;5052918;28;20179;-72
2022/03/23 02:14:43;;;;;;;6.60;5.90;;;17.40;51.80;;;;;;5052689;28;20220;-73
2022/03/23 02:17:08;;;;;;;6.72;6.05;;;17.40;51.80;;;;;;5052781;28;20215;-71
2022/03/23 02:19:35;;;;;;;7.35;6.32;;;17.40;51.80;;;;;;5053415;28;20182;-72
2022/03/23 02:22:00;;;;;;;6.88;5.43;;;17.40;51.80;;;;;;5052690;28;20574;-71
2022/03/23 02:24:27;;;;;;;6.88;5.70;;;17.40;51.80;;;;;;5052074;28;20664;-72
2022/03/23 02:26:53;;;;;;;6.97;6.38;;;17.40;51.80;;;;;;5053532;28;20216;-72
2022/03/23 02:29:20;;;;;;;6.55;5.47;;;17.40;51.80;;;;;;5052790;28;20211;-71
2022/03/23 02:31:45;;;;;;;7.18;5.72;;;17.40;51.80;;;;;;5053184;28;20182;-70
2022/03/23 02:34:11;;;;;;;6.50;5.85;;;17.30;51.80;;;;;;5052745;28;20175;-69
2022/03/23 02:36:37;;;;;;;6.53;5.93;;;17.30;51.70;;;;;;5052414;28;20227;-69
2022/03/23 02:39:02;;;;;;;6.45;5.78;;;17.30;51.70;;;;;;5053073;28;20171;-70
2022/03/23 02:41:31;;;;;;;6.00;5.50;;;17.30;51.70;;;;;;5052656;28;20293;-70
2022/03/23 02:43:56;;;;;;;7.00;6.30;;;17.30;51.70;;;;;;5052155;28;20183;-72
2022/03/23 02:46:22;;;;;;;6.38;5.78;;;17.30;51.80;;;;;;5052447;28;20607;-70
2022/03/23 02:48:48;;;;;;;6.10;5.50;;;17.30;51.70;;;;;;5052838;28;20175;-70
2022/03/23 02:51:14;;;;;;;5.70;5.20;;;17.30;51.70;;;;;;5051784;28;20186;-71
2022/03/23 03:02:14;;;;;;;6.10;5.50;;;17.30;51.70;;;;;;5052363;28;20175;-70
2022/03/23 03:04:39;;;;;;;7.15;6.28;;;17.30;51.70;;;;;;5051644;28;20190;-70
2022/03/23 03:07:05;;;;;;;6.35;5.75;;;17.30;51.70;;;;;;5052347;28;20266;-69
2022/03/23 03:09:31;;;;;;;5.72;5.25;;;17.30;51.70;;;;;;5052113;28;20545;-70
2022/03/23 03:11:57;;;;;;;7.57;5.82;;;17.20;51.70;;;;;;5051765;28;20654;-73
2022/03/23 03:14:22;;;;;;;6.55;5.95;;;17.20;51.70;;;;;;5052020;28;20248;-72
2022/03/23 03:16:48;;;;;;;5.85;5.35;;;17.20;51.70;;;;;;5052240;28;20682;-72
2022/03/23 03:19:14;;;;;;;6.30;5.78;;;17.30;51.70;;;;;;5051147;28;20186;-72
2022/03/23 03:21:40;;;;;;;6.55;5.95;;;17.20;51.60;;;;;;5052089;28;20707;-72
2022/03/23 03:24:06;;;;;;;6.95;6.07;;;17.20;51.60;;;;;;5051939;28;20186;-72
2022/03/23 03:26:32;;;;;;;6.03;5.43;;;17.20;51.60;;;;;;5050248;28;20205;-72
2022/03/23 03:28:57;;;;;;;6.18;5.68;;;17.20;51.60;;;;;;5051901;28;20540;-71
2022/03/23 03:31:26;;;;;;;6.10;5.50;;;17.20;51.60;;;;;;5051785;28;20191;-70
2022/03/23 03:33:51;;;;;;;5.82;5.32;;;17.20;51.60;;;;;;5051796;28;20171;-70
2022/03/23 03:36:17;;;;;;;6.45;5.75;;;17.20;51.60;;;;;;5051253;28;20234;-69
2022/03/23 03:38:43;;;;;;;6.88;6.20;;;17.20;51.60;;;;;;5051355;28;20262;-70
2022/03/23 03:41:08;;;;;;;6.57;5.95;;;17.10;52.20;;;;;;5051728;28;20254;-72
2022/03/23 03:43:35;;;;;;;6.63;5.90;;;17.10;51.60;;;;;;5051982;28;20175;-71
2022/03/23 03:46:01;;;;;;;6.25;5.70;;;17.10;51.60;;;;;;5050100;28;20179;-71
2022/03/23 03:48:26;;;;;;;6.40;5.80;;;17.10;51.60;;;;;;5051398;28;20655;-70
2022/03/23 03:50:52;;;;;;;6.68;5.97;;;17.10;51.50;;;;;;5051702;28;20175;-72
2022/03/23 03:53:17;;;;;;;6.07;5.47;;;17.10;51.50;;;;;;5051113;28;20216;-71
2022/03/23 03:55:45;;;;;;;6.60;5.85;;;17.10;51.50;;;;;;5051803;28;20199;-73
2022/03/23 03:58:12;;;;;;;6.63;6.03;;;17.10;51.60;;;;;;5051165;28;20603;-71
2022/03/23 04:00:39;;;;;;;6.15;5.55;;;17.10;51.50;;;;;;5051252;28;20199;-71
2022/03/23 04:03:04;;;;;;;6.93;6.13;;;17.10;51.50;;;;;;5051805;28;20185;-71
2022/03/23 04:05:30;;;;;;;7.38;6.57;;;17.10;51.60;;;;;;5051328;28;20175;-70
2022/03/23 04:07:56;;;;;;;7.10;6.07;;;17.10;51.60;;;;;;5051094;28;20183;-70
2022/03/23 04:10:27;;;;;;;6.53;5.93;;;17.10;51.60;;;;;;5051481;28;20183;-71
2022/03/23 04:12:53;;;;;;;6.63;5.57;;;17.10;51.60;;;;;;5051740;28;20262;-72
2022/03/23 04:15:20;;;;;;;5.82;5.32;;;17.00;51.50;;;;;;5050447;28;20270;-72
2022/03/23 04:17:46;;;;;;;6.45;5.88;;;17.00;51.50;;;;;;5051452;28;20179;-72
2022/03/23 04:20:12;;;;;;;6.57;5.97;;;17.00;51.50;;;;;;5051444;28;20316;-71
2022/03/23 04:22:41;;;;;;;6.45;5.85;;;17.00;51.50;;;;;;5050924;28;20249;-71
2022/03/23 04:25:10;;;;;;;7.00;6.35;;;17.00;51.50;;;;;;5051436;28;20175;-70
2022/03/23 04:27:50;;;;;;;6.75;6.15;;;17.00;51.50;;;;;;5051459;28;20198;-70
2022/03/23 04:30:17;;;;;;;6.30;5.70;;;17.00;51.50;;;;;;5051134;28;20262;-70
2022/03/23 04:32:44;;;;;;;6.85;6.25;;;17.00;51.50;;;;;;5051606;28;20236;-69
2022/03/23 04:35:09;;;;;;;7.15;6.53;;;17.00;51.50;;;;;;5050414;28;20199;-69
2022/03/23 04:37:35;;;;;;;6.70;6.00;;;17.00;51.50;;;;;;5051598;28;20230;-69
2022/03/23 04:40:00;;;;;;;6.15;5.55;;;17.00;51.50;;;;;;5051360;28;20170;-70
2022/03/23 04:42:26;;;;;;;7.80;6.13;;;17.00;51.50;;;;;;5050310;28;20175;-70
2022/03/23 04:44:51;;;;;;;6.63;6.03;;;17.00;51.50;;;;;;5051156;28;20661;-70
2022/03/23 04:47:17;;;;;;;6.75;6.15;;;17.00;51.60;;;;;;5052320;28;20248;-70
2022/03/23 04:49:45;;;;;;;8.48;6.38;;;16.90;51.50;;;;;;5054524;28;20191;-70
2022/03/23 04:52:13;;;;;;;6.30;5.70;;;16.90;51.50;;;;;;5054387;28;20171;-70
2022/03/23 04:54:39;;;;;;;6.35;5.75;;;16.90;51.50;;;;;;5054919;28;20649;-71
2022/03/23 04:57:04;;;;;;;6.82;6.20;;;16.90;51.50;;;;;;5054136;28;20203;-71
2022/03/23 04:59:33;;;;;;;7.00;6.40;;;16.90;51.50;;;;;;5054194;28;20223;-70
2022/03/23 05:01:59;;;;;;;6.50;5.90;;;16.90;51.50;;;;;;5055114;28;20313;-70
2022/03/23 05:04:25;;;;;;;8.18;6.10;;;16.90;51.50;;;;;;5053568;28;20644;-69
2022/03/23 05:06:50;;;;;;;7.15;6.45;;;16.90;51.50;;;;;;5054729;28;20191;-69
2022/03/23 05:09:15;;;;;;;7.25;6.07;;;16.90;51.50;;;;;;5054450;28;20216;-69
2022/03/23 05:11:41;;;;;;;7.65;6.82;;;16.90;51.50;;;;;;5054037;28;20175;-72
2022/03/23 05:14:07;;;;;;;7.82;6.32;;;16.90;51.50;;;;;;5054037;28;20198;-71
2022/03/23 05:16:33;;;;;;;7.28;6.28;;;16.90;51.50;;;;;;5054616;28;20268;-72
2022/03/23 05:18:58;;;;;;;6.97;6.28;;;16.90;51.50;;;;;;5053779;28;20175;-72
2022/03/23 05:21:24;;;;;;;7.38;6.47;;;16.90;51.50;;;;;;5054058;28;20249;-71
2022/03/23 05:23:49;;;;;;;6.93;6.22;;;16.80;51.40;;;;;;5054461;28;20628;-73
2022/03/23 05:26:15;;;;;;;6.47;5.85;;;16.80;51.40;;;;;;5053418;28;20184;-71
2022/03/23 05:28:41;;;;;;;6.80;6.20;;;16.80;51.40;;;;;;5054229;28;20183;-70
2022/03/23 05:31:06;;;;;;;7.13;6.43;;;16.80;51.40;;;;;;5053286;28;20179;-71
2022/03/23 05:33:32;;;;;;;6.50;5.90;;;16.80;51.40;;;;;;5054130;28;20722;-69
2022/03/23 05:35:57;;;;;;;6.82;6.13;;;16.80;51.40;;;;;;5054159;28;20203;-71
2022/03/23 05:38:23;;;;;;;6.63;6.03;;;16.80;51.40;;;;;;5053240;28;20298;-69
2022/03/23 05:40:48;;;;;;;6.97;6.28;;;16.80;51.40;;;;;;5053968;28;20174;-70
2022/03/23 05:43:14;;;;;;;6.82;6.22;;;16.80;51.40;;;;;;5053510;28;20202;-71
2022/03/23 05:45:39;;;;;;;7.13;6.43;;;16.80;51.40;;;;;;5053450;28;20171;-71
2022/03/23 05:48:05;;;;;;;7.00;6.40;;;16.80;52.00;;;;;;5054053;28;20175;-71
2022/03/23 05:50:31;;;;;;;7.95;7.15;;;16.80;51.40;;;;;;5053642;28;20182;-70
2022/03/23 05:52:56;;;;;;;7.03;6.40;;;16.80;51.40;;;;;;5053186;28;20275;-72
2022/03/23 05:55:22;;;;;;;8.07;6.70;;;16.80;51.40;;;;;;5053420;28;20189;-72
2022/03/23 05:57:47;;;;;;;7.47;6.78;;;16.80;51.40;;;;;;5053531;28;20255;-72
2022/03/23 06:00:13;;;;;;;6.85;6.25;;;16.80;51.30;;;;;;5052465;28;20329;-70
2022/03/23 06:02:40;;;;;;;7.05;6.22;;;16.70;51.30;;;;;;5053632;28;20561;-69
2022/03/23 06:05:07;;;;;;;6.93;6.28;;;16.80;51.40;;;;;;5053143;28;20179;-71
2022/03/23 06:07:34;;;;;;;6.88;6.25;;;16.80;51.40;;;;;;5053291;28;20172;-74
2022/03/23 06:10:00;;;;;;;7.07;6.38;;;16.70;51.30;;;;;;5053632;28;20607;-73
2022/03/23 06:12:25;;;;;;;6.72;6.13;;;16.80;51.30;;;;;;5053195;28;20744;-73
2022/03/23 06:14:51;;;;;;;7.13;6.50;;;16.80;51.30;;;;;;5052705;28;20262;-72
2022/03/23 06:17:16;;;;;;;7.15;6.43;;;16.70;51.90;;;;;;5053011;28;20222;-72
2022/03/23 06:19:51;;;;;;;7.28;6.57;;;16.70;51.20;;;;;;5053259;28;20168;-72
2022/03/23 06:22:16;;;;;;;7.53;6.70;;;16.70;51.30;;;;;;5052234;28;20232;-72
2022/03/23 06:24:42;;;;;;;7.88;6.40;;;16.70;51.20;;;;;;5053595;28;20171;-72
2022/03/23 06:27:08;;;;;;;6.80;6.10;;;16.70;51.30;;;;;;5052654;28;20171;-72
2022/03/23 06:29:33;;;;;;;7.13;6.53;;;16.80;51.30;;;;;;5052451;28;20200;-71
2022/03/23 06:32:05;;;;;;;6.97;6.28;;;16.70;51.20;;;;;;5052975;28;20255;-71
2022/03/23 06:34:31;;;;;;;7.10;6.47;;;16.70;51.20;;;;;;5052175;28;20171;-69
2022/03/23 06:36:56;;;;;;;7.40;6.70;;;16.70;51.20;;;;;;5052918;28;20214;-69
2022/03/23 06:39:24;;;;;;;7.30;6.60;;;16.70;51.20;;;;;;5052509;28;20529;-70
2022/03/23 06:41:50;;;;;;;6.97;6.25;;;16.80;51.20;;;;;;5052443;28;20206;-70
2022/03/23 06:44:16;;;;;;;7.00;6.40;;;16.80;51.20;;;;;;5052641;28;20487;-70
2022/03/23 06:46:44;;;;;;;7.55;6.72;;;16.80;51.20;;;;;;5052835;28;20647;-70
2022/03/23 06:49:10;;;;;;;7.35;6.65;;;16.80;51.20;;;;;;5051900;28;20538;-70
2022/03/23 06:51:35;;;;;;;7.35;6.65;;;16.80;51.20;;;;;;5052783;28;20171;-70
2022/03/23 06:54:01;;;;;;;7.07;6.47;;;16.80;51.20;;;;;;5052498;28;20171;-71
2022/03/23 06:56:26;;;;;;;7.30;6.60;;;16.80;51.10;;;;;;5051635;28;20215;-70
2022/03/23 06:58:52;;;;;;;7.78;6.97;;;16.80;51.10;;;;;;5052118;28;20280;-70
2022/03/23 07:01:17;;;;;;;7.22;6.53;;;16.80;51.10;;;;;;5052188;28;20649;-70
2022/03/23 07:03:43;;;;;;;6.93;6.22;;;16.80;51.10;;;;;;5051764;28;20266;-71
2022/03/23 07:06:08;;;;;;;7.65;6.95;;;16.90;51.00;;;;;;5052195;28;20171;-69
2022/03/23 07:11:21;;;;;;;7.75;7.03;;;16.90;51.00;;;;;;5050851;28;20193;-72
2022/03/23 07:13:46;;;;;;;8.27;6.25;;;17.00;51.00;;;;;;5052221;28;20650;-72
2022/03/23 07:16:12;;;;;;;8.88;6.47;;;16.90;50.90;;;;;;5051651;28;20256;-74
2022/03/23 07:18:37;;;;;;;6.53;5.93;;;16.90;50.90;;;;;;5051606;28;20251;-71
2022/03/23 07:21:04;;;;;;;7.22;6.53;;;17.00;50.80;;;;;;5052131;28;20206;-71
2022/03/23 07:23:34;;;;;;;7.68;6.85;;;17.00;50.70;;;;;;5051755;28;20190;-74
2022/03/23 07:26:00;;;;;;;7.20;6.47;;;17.00;50.80;;;;;;5052297;28;20186;-74
2022/03/23 07:28:26;;;;;;;7.43;6.72;;;17.00;50.80;;;;;;5051677;28;20183;-72
2022/03/23 07:30:51;;;;;;;7.75;6.95;;;17.10;50.80;;;;;;5051253;28;20960;-74
2022/03/23 07:33:17;;;;;;;7.03;6.32;;;17.20;50.70;;;;;;5051438;28;20186;-71
2022/03/23 07:35:42;;;;;;;7.25;6.55;;;17.20;50.70;;;;;;5051564;28;20535;-72
2022/03/23 07:38:08;;;;;;;8.43;7.50;;;17.30;50.80;;;;;;5051112;28;20261;-71
2022/03/23 07:40:33;;;;;;;7.72;6.75;;;17.50;51.10;;;;;;5051998;28;20167;-72
2022/03/23 07:42:59;;;;;;;7.00;6.30;;;17.60;51.10;;;;;;5051966;28;20175;-71
2022/03/23 07:45:24;;;;;;;7.50;6.10;;;17.80;51.00;;;;;;5050468;28;20245;-71
2022/03/23 07:47:50;;;;;;;6.95;6.28;;;18.00;50.90;;;;;;5051753;28;20185;-69
2022/03/23 07:50:15;;;;;;;7.20;6.38;;;18.30;50.60;;;;;;5051348;28;20559;-67
2022/03/23 07:52:41;;;;;;;6.53;5.50;;;18.50;50.20;;;;;;5051349;28;20194;-69
2022/03/23 07:55:07;;;;;;;6.90;5.82;;;18.70;49.80;;;;;;5051215;28;20480;-69
2022/03/23 07:57:35;;;;;;;7.57;5.32;;;18.90;49.60;;;;;;5051445;28;20215;-69
2022/03/23 08:00:00;;;;;;;6.68;5.65;;;19.10;49.30;;;;;;5050675;28;20223;-70
2022/03/23 08:02:26;;;;;;;9.35;8.18;;;19.10;49.20;;;;;;5051368;28;20310;-69
2022/03/23 08:04:52;;;;;;;9.45;7.35;;;19.00;48.60;;;;;;5051459;28;20337;-70
2022/03/23 08:07:18;;;;;;;9.02;6.97;;;19.00;48.50;;;;;;5050726;28;20186;-69
2022/03/23 08:09:44;;;;;;;7.60;6.72;;;19.00;48.70;;;;;;5051420;28;20171;-70
2022/03/23 08:12:09;;;;;;;9.57;6.68;;;19.00;48.80;;;;;;5051302;28;20525;-72
2022/03/23 08:14:35;;;;;;;18.85;7.38;;;19.00;49.10;;;;;;5050796;28;20634;-71
2022/03/23 08:17:00;;;;;;;7.38;6.45;;;19.00;49.10;;;;;;5051577;28;20216;-71
2022/03/23 08:19:26;;;;;;;7.45;5.93;;;19.00;49.20;;;;;;5050166;28;20175;-70
2022/03/23 08:21:51;;;;;;;7.68;5.68;;;19.00;49.40;;;;;;5051032;28;20171;-70
2022/03/23 08:24:17;;;;;;;7.80;6.30;;;18.90;49.50;;;;;;5055383;28;20628;-69
2022/03/23 08:26:43;;;;;;;7.50;5.32;;;18.90;49.70;;;;;;5055426;28;20179;-70
2022/03/23 08:29:08;;;;;;;7.20;6.50;;;18.90;50.50;;;;;;5054265;28;20175;-70
2022/03/23 08:31:34;;;;;;;5.80;5.05;;;18.80;49.90;;;;;;5055309;28;20203;-69
2022/03/23 08:34:00;;;;;;;6.15;5.65;;;18.90;50.00;;;;;;5054621;28;20248;-70
2022/03/23 08:36:25;;;;;;;7.78;5.53;;;18.80;50.10;;;;;;5055251;28;21244;-69
2022/03/23 08:38:51;;;;;;;7.60;5.45;;;18.80;50.20;;;;;;5055442;28;20724;-69
2022/03/23 08:41:18;;;;;;;7.65;5.60;;;18.70;50.20;;;;;;5054234;28;20278;-74
2022/03/23 08:43:43;;;;;;;6.00;5.40;;;18.70;50.30;;;;;;5055319;28;20183;-71
2022/03/23 08:46:12;;;;;;;6.53;5.78;;;18.60;50.40;;;;;;5054796;28;20291;-68
2022/03/23 08:48:37;;;;;;;6.75;6.03;;;18.60;50.50;;;;;;5054401;28;20187;-68
2022/03/23 08:51:03;;;;;;;7.35;5.60;;;18.60;50.70;;;;;;5055281;28;20175;-68
2022/03/23 08:53:28;;;;;;;9.75;5.53;;;18.50;50.70;;;;;;5054964;28;20552;-68
2022/03/23 08:55:54;;;;;;;6.75;5.95;;;18.50;50.60;;;;;;5054140;28;20206;-69
2022/03/23 08:58:19;;;;;;;5.63;5.10;;;18.50;50.70;;;;;;5054085;28;20713;-68
2022/03/23 09:00:45;;;;;;;7.68;5.13;;;18.50;50.70;;;;;;5054307;28;20537;-69
2022/03/23 09:03:10;;;;;;;7.53;5.93;;;18.50;50.70;;;;;;5053809;28;20222;-68
2022/03/23 09:05:39;;;;;;;6.03;5.40;;;18.60;50.70;;;;;;5054962;28;20182;-68
2022/03/23 09:08:04;;;;;;;9.10;5.55;;;18.50;51.30;;;;;;5054969;28;20202;-68
2022/03/23 09:10:30;;;;;;;6.93;5.45;;;18.60;50.70;;;;;;5053734;28;20188;-68
2022/03/23 09:12:55;;;;;;;7.10;5.63;;;18.60;50.70;;;;;;5054662;28;20171;-69
2022/03/23 09:15:21;;;;;;;6.30;5.50;;;18.60;50.70;;;;;;5054338;28;20171;-69
2022/03/23 09:17:46;;;;;;;6.05;5.45;;;18.60;50.70;;;;;;5053633;28;20264;-69
2022/03/23 09:20:13;;;;;;;7.15;5.20;;;18.50;50.70;;;;;;5054274;28;20175;-69
2022/03/23 09:22:41;;;;;;;5.82;5.20;;;18.60;50.70;;;;;;5054755;28;20180;-69
2022/03/23 09:25:08;;;;;;;7.47;5.65;;;18.60;50.70;;;;;;5053449;28;20596;-69
2022/03/23 09:27:38;;;;;;;6.57;5.93;;;18.60;50.70;;;;;;5055507;28;20269;-73
2022/03/23 09:30:04;;;;;;;7.90;5.80;;;18.60;50.80;;;;;;5055102;28;20566;-70
2022/03/23 09:32:30;;;;;;;5.72;5.15;;;18.60;50.80;;;;;;5052405;28;20261;-73
2022/03/23 09:34:55;;;;;;;7.43;5.82;;;18.60;51.10;;;;;;5053776;28;20586;-76
2022/03/23 09:40:06;;;;;;;7.13;5.80;;;18.60;51.30;;;;;;5052831;28;20203;-75
2022/03/23 09:42:31;;;;;;;7.05;6.00;;;18.60;51.30;;;;;;5053781;28;20182;-77
2022/03/23 09:44:57;;;;;;;6.78;6.07;;;18.60;51.20;;;;;;5052935;28;20171;-77
2022/03/23 09:47:23;;;;;;;8.35;6.20;;;18.60;51.30;;;;;;5053242;28;20254;-73
2022/03/23 09:49:48;;;;;;;6.75;5.68;;;18.60;51.30;;;;;;5052956;28;20167;-76
2022/03/23 09:52:14;;;;;;;8.48;6.00;;;18.70;51.40;;;;;;5052218;28;20329;-74
2022/03/23 09:54:41;;;;;;;6.95;5.75;;;18.70;51.30;;;;;;5053215;28;20340;-76
2022/03/23 09:57:07;;;;;;;7.10;6.40;;;18.70;51.40;;;;;;5053368;28;20210;-74
2022/03/23 09:59:33;;;;;;;7.53;6.22;;;18.70;51.50;;;;;;5052787;28;20219;-73
2022/03/23 10:02:01;;;;;;;8.32;5.30;;;18.70;51.40;;;;;;5053823;28;20643;-73
2022/03/23 10:05:11;;;;;;;8.02;5.22;;;18.70;51.40;;;;;;5053271;28;20717;-73
2022/03/23 10:08:06;;;;;;;5.80;5.30;;;18.70;51.40;;;;;;5052759;28;20546;-75
2022/03/23 10:10:53;;;;;;;6.63;5.70;;;18.70;51.30;;;;;;5053810;28;20171;-75
2022/03/23 10:14:15;;;;;;;7.20;5.78;;;18.70;51.30;;;;;;5052736;28;20202;-75
2022/03/23 10:17:19;;;;;;;6.40;5.80;;;18.70;51.30;;;;;;5053021;28;20210;-73
2022/03/23 10:19:45;;;;;;;6.43;5.82;;;18.70;51.80;;;;;;5052664;28;20269;-76
2022/03/23 10:22:12;;;;;;;6.07;5.55;;;18.80;51.20;;;;;;5053121;28;20257;-74
2022/03/23 10:24:37;;;;;;;5.95;5.35;;;18.80;51.10;;;;;;5053393;28;20197;-75
2022/03/23 10:27:13;;;;;;;7.97;5.88;;;18.80;51.10;;;;;;5052830;28;20653;-76
2022/03/23 10:29:44;;;;;;;5.95;5.40;;;18.80;51.10;;;;;;5053375;28;20515;-75
2022/03/23 10:32:10;;;;;;;8.52;5.40;;;18.80;51.00;;;;;;5052449;28;20217;-73
2022/03/23 10:34:46;;;;;;;6.40;5.75;;;18.80;51.00;;;;;;5051939;28;20175;-77
2022/03/23 10:37:12;;;;;;;7.18;5.80;;;18.90;51.10;;;;;;5032629;28;20252;-76
2022/03/23 10:39:38;;;;;;;6.50;5.40;;;18.90;51.20;;;;;;5033132;28;20233;-72
2022/03/23 10:42:08;;;;;;;7.30;4.90;;;18.90;51.20;;;;;;5032515;28;20183;-73
2022/03/23 10:44:33;;;;;;;7.35;5.88;;;19.00;51.20;;;;;;5032214;28;20172;-75
2022/03/23 10:46:59;;;;;;;8.95;5.30;;;19.00;51.10;;;;;;5033143;28;20274;-75
2022/03/23 10:49:35;;;;;;;6.43;5.82;;;19.00;51.10;;;;;;5031879;28;20179;-74
2022/03/23 10:52:15;;;;;;;6.68;5.97;;;19.00;51.10;;;;;;5033004;28;20225;-73
2022/03/23 10:54:51;;;;;;;6.78;5.53;;;19.10;51.20;;;;;;5032197;28;20172;-74
2022/03/23 10:57:17;;;;;;;5.65;4.93;;;19.00;51.10;;;;;;5032878;28;20211;-78
2022/03/23 10:59:44;;;;;;;5.90;5.40;;;19.00;51.10;;;;;;5032419;28;20247;-73
2022/03/23 11:02:10;;;;;;;7.43;5.22;;;19.00;51.00;;;;;;5031550;28;20213;-73
2022/03/23 11:04:49;;;;;;;5.80;4.88;;;19.10;51.10;;;;;;5032480;28;20590;-72
2022/03/23 11:07:35;;;;;;;6.72;5.20;;;19.10;51.10;;;;;;5032381;28;20195;-73
2022/03/23 11:15:49;;;;;;;5.80;5.20;;;19.20;50.90;;;;;;5032240;28;20671;-76
2022/03/23 11:18:16;;;;;;;8.40;5.40;;;19.30;51.00;;;;;;5031947;28;20190;-75
2022/03/23 11:20:51;;;;;;;7.95;5.38;;;19.30;50.90;;;;;;5032089;28;20184;-73
2022/03/23 11:23:20;;;;;;;5.53;5.03;;;19.30;51.00;;;;;;5031316;28;20259;-73
2022/03/23 11:25:46;;;;;;;6.28;5.43;;;19.20;50.90;;;;;;5032273;28;20558;-70
2022/03/23 11:28:13;;;;;;;9.27;5.47;;;19.20;50.90;;;;;;5031901;28;20180;-74
2022/03/23 11:30:38;;;;;;;6.07;5.47;;;19.30;50.90;;;;;;5031428;28;20642;-73
2022/03/23 11:33:06;;;;;;;7.25;5.88;;;19.30;50.70;;;;;;5032015;28;20186;-72
2022/03/23 11:35:35;;;;;;;5.88;5.28;;;19.30;51.40;;;;;;5032181;28;20187;-74
2022/03/23 11:38:00;;;;;;;6.38;5.78;;;19.30;50.80;;;;;;5031516;28;20191;-71
2022/03/23 11:40:29;;;;;;;9.55;6.03;;;19.40;50.70;;;;;;5030379;28;20584;-73
2022/03/23 11:42:54;;;;;;;8.93;5.47;;;19.30;50.70;;;;;;5031013;28;20603;-75
2022/03/23 11:45:20;;;;;;;6.53;5.07;;;19.30;50.70;;;;;;5031040;28;20222;-74
2022/03/23 11:47:53;;;;;;;9.10;5.07;;;19.30;50.60;;;;;;5031842;28;20168;-73
2022/03/23 11:50:41;;;;;;;7.57;5.47;;;19.40;50.70;;;;;;5030624;28;20274;-75
2022/03/23 11:53:13;;;;;;;6.13;5.10;;;19.40;50.70;;;;;;5030886;28;20183;-74
2022/03/23 11:55:46;;;;;;;5.95;5.22;;;19.40;50.60;;;;;;5030168;28;20218;-77
2022/03/23 11:58:17;;;;;;;6.72;5.80;;;19.40;50.60;;;;;;5029334;28;20180;-73
2022/03/23 12:00:51;;;;;;;8.50;4.82;;;19.40;50.70;;;;;;5031886;28;20194;-73
2022/03/23 12:03:45;;;;;;;7.05;5.03;;;19.50;50.70;;;;;;5031572;28;20187;-71
2022/03/23 12:06:12;;;;;;;5.22;4.72;;;19.50;50.70;;;;;;5030673;28;20180;-69
2022/03/23 12:08:47;;;;;;;5.95;4.97;;;19.50;50.60;;;;;;5031371;28;20613;-70
2022/03/23 12:11:44;;;;;;;5.97;4.47;;;19.60;50.70;;;;;;5031496;28;20172;-72
2022/03/23 12:14:27;;;;;;;6.22;4.50;;;19.60;50.60;;;;;;5030702;28;20180;-72
2022/03/23 12:16:52;;;;;;;5.57;5.05;;;19.60;50.60;;;;;;5031439;28;20660;-73
2022/03/23 12:19:30;;;;;;;5.75;4.90;;;19.70;50.70;;;;;;5030727;28;20230;-72
2022/03/23 12:21:55;;;;;;;4.75;4.28;;;19.70;50.70;;;;;;5031541;28;20179;-73
2022/03/23 12:24:37;;;;;;;6.93;4.32;;;19.70;50.60;;;;;;5031381;28;20172;-79
2022/03/23 12:27:05;;;;;;;6.47;4.32;;;19.70;50.60;;;;;;5029587;28;20296;-76
2022/03/23 12:29:35;;;;;;;5.35;4.57;;;19.70;50.40;;;;;;5031241;28;20210;-70
2022/03/23 12:32:06;;;;;;;6.75;4.25;;;19.70;50.50;;;;;;5030596;28;20180;-70
2022/03/23 12:34:31;;;;;;;8.07;4.88;;;19.70;50.40;;;;;;5030910;28;20191;-66
2022/03/23 12:37:10;;;;;;;5.03;4.50;;;19.70;50.40;;;;;;5031534;28;20220;-68
2022/03/23 12:39:39;;;;;;;5.50;4.38;;;19.80;50.50;;;;;;5031589;28;20309;-68
2022/03/23 12:42:15;;;;;;;4.95;4.43;;;19.80;50.40;;;;;;5030725;28;20172;-68
2022/03/23 12:44:43;;;;;;;6.90;5.03;;;19.80;50.50;;;;;;5031461;28;20171;-67
2022/03/23 12:47:11;;;;;;;4.65;4.25;;;19.80;50.30;;;;;;5030331;28;20497;-66
2022/03/23 12:58:33;;;;;;;6.93;4.90;;;19.80;50.20;;;;;;5031228;28;20638;-68
2022/03/23 13:01:12;;;;;;;5.47;4.43;;;19.90;50.40;;;;;;5031436;28;20184;-67
2022/03/23 13:03:41;;;;;;;8.18;4.25;;;19.90;50.40;;;;;;5031267;28;20179;-67
2022/03/23 13:06:08;;;;;;;5.18;4.35;;;19.90;50.30;;;;;;5030874;28;20784;-68
2022/03/23 13:08:34;;;;;;;5.43;4.00;;;20.00;50.20;;;;;;5032155;28;20180;-68
2022/03/23 13:11:01;;;;;;;4.88;4.25;;;20.00;50.10;;;;;;5034526;28;20590;-69
2022/03/23 13:13:28;;;;;;;4.57;4.15;;;20.10;50.00;;;;;;5034650;28;20210;-71
2022/03/23 13:15:53;;;;;;;4.85;4.18;;;20.10;49.80;;;;;;5034053;28;20211;-68
2022/03/23 13:18:26;;;;;;;6.50;4.18;;;20.20;49.70;;;;;;5034316;28;20176;-70